createdAt,value
2023-05-12T00:01:48.754Z,90545.28
2023-05-12T00:04:33.857Z,90545.69
2023-05-12T00:07:18.979Z,90541.59
2023-05-12T00:10:04.028Z,90540.13
2023-05-12T00:12:50.035Z,90545.53
2023-05-12T00:15:37.073Z,90538.00
2023-05-12T00:18:23.037Z,90533.19
2023-05-12T00:21:08.735Z,90537.88
2023-05-12T00:23:53.568Z,90537.56
2023-05-12T00:26:38.461Z,90528.22
2023-05-12T00:29:23.370Z,90524.09
2023-05-12T00:32:08.349Z,90524.69
2023-05-12T00:34:57.395Z,90528.78
2023-05-12T00:37:42.747Z,90521.09
2023-05-12T00:40:27.974Z,90517.88
2023-05-12T00:43:12.839Z,90523.09
2023-05-12T00:45:57.753Z,90518.13
2023-05-12T00:48:44.207Z,90517.28
2023-05-12T00:51:29.526Z,90520.50
2023-05-12T00:54:14.726Z,90515.56
2023-05-12T00:56:59.907Z,90510.75
2023-05-12T00:59:45.123Z,90509.84
2023-05-12T01:02:31.003Z,90500.38
2023-05-12T01:05:16.590Z,90513.13
2023-05-12T01:08:03.169Z,90514.25
2023-05-12T01:10:48.127Z,90504.06
2023-05-12T01:13:33.073Z,90508.00
2023-05-12T01:16:22.974Z,90509.25
2023-05-12T01:19:14.956Z,90507.84
2023-05-12T01:22:00.685Z,90513.78
2023-05-12T01:24:59.076Z,90509.53
2023-05-12T01:27:45.896Z,90507.38
2023-05-12T01:30:32.470Z,90518.00
2023-05-12T01:33:17.662Z,90510.50
2023-05-12T01:36:02.764Z,90511.75
2023-05-12T01:38:48.068Z,90508.50
2023-05-12T01:41:33.027Z,90505.50
2023-05-12T01:44:17.834Z,90504.78
2023-05-12T01:47:02.857Z,90518.09
2023-05-12T01:49:47.732Z,90510.50
2023-05-12T01:52:32.942Z,90504.41
2023-05-12T01:55:18.032Z,90509.88
2023-05-12T01:58:03.158Z,90515.66
2023-05-12T02:00:48.312Z,90514.22
2023-05-12T02:03:33.195Z,90518.59
2023-05-12T02:06:18.578Z,90516.31
2023-05-12T02:09:03.604Z,90510.94
2023-05-12T02:11:49.410Z,90513.06
2023-05-12T02:14:34.591Z,90515.59
2023-05-12T02:17:19.762Z,90514.03
2023-05-12T02:20:05.391Z,90505.41
2023-05-12T02:22:50.412Z,90508.25
2023-05-12T02:25:35.792Z,90506.84
2023-05-12T02:28:20.740Z,90502.88
2023-05-12T02:31:05.584Z,90503.13
2023-05-12T02:33:51.568Z,90502.25
2023-05-12T02:36:36.359Z,90500.38
2023-05-12T02:39:21.405Z,90498.41
2023-05-12T02:42:07.134Z,90502.34
2023-05-12T02:44:52.344Z,90499.66
2023-05-12T02:47:37.539Z,90491.28
2023-05-12T02:50:22.916Z,90494.34
2023-05-12T02:53:07.835Z,90502.03
2023-05-12T02:55:53.181Z,90489.88
2023-05-12T02:58:38.070Z,90498.88
2023-05-12T03:01:22.854Z,90497.00
2023-05-12T03:04:07.750Z,90495.00
2023-05-12T03:06:52.465Z,90487.81
2023-05-12T03:09:37.391Z,90490.34
2023-05-12T03:12:22.072Z,90482.28
2023-05-12T03:15:07.827Z,90485.38
2023-05-12T03:17:52.822Z,90488.94
2023-05-12T03:20:37.686Z,90484.81
2023-05-12T03:23:22.694Z,90491.13
2023-05-12T03:26:07.613Z,90477.94
2023-05-12T03:28:52.786Z,90483.50
2023-05-12T03:31:38.354Z,90487.59
2023-05-12T03:34:23.355Z,90488.69
2023-05-12T03:37:08.512Z,90488.69
2023-05-12T03:39:56.058Z,90489.09
2023-05-12T03:42:40.983Z,90483.41
2023-05-12T03:45:25.963Z,90480.72
2023-05-12T03:48:10.888Z,90482.97
2023-05-12T03:50:56.011Z,90483.66
2023-05-12T03:53:45.136Z,90480.81
2023-05-12T03:56:30.230Z,90482.06
2023-05-12T03:59:16.142Z,90480.09
2023-05-12T04:02:01.711Z,90479.78
2023-05-12T04:04:47.253Z,90472.53
2023-05-12T04:07:32.306Z,90471.03
2023-05-12T04:10:17.665Z,90477.91
2023-05-12T04:13:02.644Z,90470.84
2023-05-12T04:15:49.196Z,90467.09
2023-05-12T04:18:35.775Z,90470.78
2023-05-12T04:21:20.988Z,90472.84
2023-05-12T04:24:06.319Z,90465.00
2023-05-12T04:26:51.373Z,90477.94
2023-05-12T04:29:36.332Z,90474.38
2023-05-12T04:32:21.765Z,90477.16
2023-05-12T04:35:07.209Z,90468.25
2023-05-12T04:37:52.695Z,90475.03
2023-05-12T04:42:01.896Z,90477.00
2023-05-12T04:44:46.949Z,90484.34
2023-05-12T04:47:32.089Z,90483.00
2023-05-12T04:50:17.458Z,90478.19
2023-05-12T04:53:02.718Z,90486.53
2023-05-12T04:55:47.518Z,90486.25
2023-05-12T04:58:32.559Z,90485.72
2023-05-12T05:01:18.104Z,90488.69
2023-05-12T05:04:03.229Z,90489.56
2023-05-12T05:06:48.216Z,90496.22
2023-05-12T05:09:34.513Z,90500.88
2023-05-12T05:12:21.237Z,90499.44
2023-05-12T05:15:07.540Z,90494.47
2023-05-12T05:17:52.600Z,90496.44
2023-05-12T05:20:40.834Z,90492.34
2023-05-12T05:23:28.770Z,90496.44
2023-05-12T05:26:14.052Z,90496.31
2023-05-12T05:28:59.256Z,90497.09
2023-05-12T05:31:44.422Z,90491.16
2023-05-12T05:34:29.613Z,90495.25
2023-05-12T05:37:14.519Z,90497.94
2023-05-12T05:39:59.399Z,90499.94
2023-05-12T05:42:44.598Z,90502.84
2023-05-12T05:45:29.911Z,90499.44
2023-05-12T05:48:15.846Z,90496.22
2023-05-12T05:51:00.948Z,90504.25
2023-05-12T05:53:45.891Z,90503.56
2023-05-12T05:56:31.681Z,90499.44
2023-05-12T05:59:16.597Z,90497.25
2023-05-12T06:02:01.600Z,90499.38
2023-05-12T06:04:47.130Z,90502.75
2023-05-12T06:07:31.972Z,90502.47
2023-05-12T06:10:16.804Z,90500.50
2023-05-12T06:13:02.150Z,90505.53
2023-05-12T06:15:47.051Z,90506.78
2023-05-12T06:18:33.914Z,90507.22
2023-05-12T06:21:19.198Z,90506.31
2023-05-12T06:24:04.267Z,90506.72
2023-05-12T06:26:49.491Z,90508.69
2023-05-12T06:29:34.759Z,90507.66
2023-05-12T06:32:19.598Z,90516.97
2023-05-12T06:35:05.276Z,90518.81
2023-05-12T06:37:50.928Z,90515.78
2023-05-12T06:40:36.029Z,90516.34
2023-05-12T06:43:20.822Z,90518.69
2023-05-12T06:46:06.928Z,90520.50
2023-05-12T06:48:52.425Z,90516.25
2023-05-12T06:51:37.612Z,90513.88
2023-05-12T06:54:22.645Z,90522.00
2023-05-12T06:57:07.711Z,90525.56
2023-05-12T06:59:52.625Z,90520.59
2023-05-12T07:02:37.689Z,90523.66
2023-05-12T07:05:23.311Z,90520.97
2023-05-12T07:08:08.778Z,90523.69
2023-05-12T07:10:53.660Z,90522.78
2023-05-12T07:13:39.097Z,90528.25
2023-05-12T07:16:24.346Z,90521.78
2023-05-12T07:19:09.633Z,90528.56
2023-05-12T07:21:54.938Z,90532.50
2023-05-12T07:24:40.179Z,90525.66
2023-05-12T07:27:25.391Z,90524.47
2023-05-12T07:30:11.221Z,90523.34
2023-05-12T07:32:56.158Z,90522.97
2023-05-12T07:35:40.978Z,90518.63
2023-05-12T07:38:26.084Z,90517.22
2023-05-12T07:41:11.447Z,90514.91
2023-05-12T07:43:56.527Z,90515.31
2023-05-12T07:46:41.555Z,90516.91
2023-05-12T07:49:26.704Z,90512.44
2023-05-12T07:52:11.947Z,90517.81
2023-05-12T07:54:57.670Z,90521.16
2023-05-12T07:57:42.943Z,90515.81
2023-05-12T08:00:28.587Z,90511.91
2023-05-12T08:03:13.628Z,90517.97
2023-05-12T08:05:58.839Z,90512.84
2023-05-12T08:08:43.999Z,90509.75
2023-05-12T08:11:29.172Z,90502.53
2023-05-12T08:14:14.100Z,90502.94
2023-05-12T08:16:59.019Z,90506.06
2023-05-12T08:19:43.883Z,90503.50
2023-05-12T08:22:28.815Z,90505.94
2023-05-12T08:25:13.795Z,90503.94
2023-05-12T08:27:59.796Z,90504.38
2023-05-12T08:30:45.494Z,90500.81
2023-05-12T08:33:31.050Z,90504.66
2023-05-12T08:36:16.219Z,90498.25
2023-05-12T08:39:02.693Z,90501.66
2023-05-12T08:41:56.840Z,90505.72
2023-05-12T08:44:41.942Z,90493.25
2023-05-12T08:47:28.597Z,90494.34
2023-05-12T08:50:17.034Z,90488.09
2023-05-12T08:53:04.319Z,90494.31
2023-05-12T08:57:08.317Z,90488.59
2023-05-12T08:58:55.234Z,90492.22
2023-05-12T09:01:42.983Z,90490.38
2023-05-12T09:04:28.356Z,90485.00
2023-05-12T09:07:14.057Z,90495.69
2023-05-12T09:10:01.078Z,90494.09
2023-05-12T09:12:47.817Z,90502.09
2023-05-12T09:15:39.002Z,90497.50
2023-05-12T09:18:24.180Z,90497.44
2023-05-12T09:21:09.147Z,90497.84
2023-05-12T09:23:58.968Z,90490.84
2023-05-12T09:26:47.430Z,90493.50
2023-05-12T09:29:37.517Z,90494.84
2023-05-12T09:32:32.845Z,90493.19
2023-05-12T09:35:17.803Z,90492.34
2023-05-12T09:38:08.703Z,90492.97
2023-05-12T09:40:53.964Z,90493.44
2023-05-12T09:43:45.783Z,90493.44
2023-05-12T09:46:31.072Z,90491.88
2023-05-12T09:49:22.373Z,90488.03
2023-05-12T09:52:07.161Z,90485.47
2023-05-12T09:54:52.698Z,90491.09
2023-05-12T09:57:41.200Z,90488.41
2023-05-12T10:00:38.483Z,90485.78
2023-05-12T10:03:33.399Z,90480.94
2023-05-12T10:06:26.531Z,90477.69
2023-05-12T10:09:19.542Z,90475.56
2023-05-12T10:12:06.272Z,90476.03
2023-05-12T10:14:52.080Z,90478.72
2023-05-12T10:17:37.522Z,90477.69
2023-05-12T10:20:23.208Z,90484.41
2023-05-12T10:23:12.184Z,90478.84
2023-05-12T10:26:01.904Z,90478.28
2023-05-12T10:28:47.713Z,90461.63
2023-05-12T10:31:32.993Z,90462.91
2023-05-12T10:34:19.301Z,90463.81
2023-05-12T10:37:09.008Z,90459.50
2023-05-12T10:39:54.352Z,90464.59
2023-05-12T10:42:42.535Z,90460.53
2023-05-12T10:45:28.235Z,90463.44
2023-05-12T10:48:15.605Z,90460.56
2023-05-12T10:51:10.654Z,90458.00
2023-05-12T10:54:06.553Z,90455.44
2023-05-12T10:56:52.741Z,90446.03
2023-05-12T10:59:48.873Z,90446.63
2023-05-12T11:02:36.762Z,90442.63
2023-05-12T11:05:34.553Z,90439.94
2023-05-12T11:08:19.979Z,90449.91
2023-05-12T11:11:06.248Z,90437.41
2023-05-12T11:13:51.816Z,90442.53
2023-05-12T11:16:42.936Z,90444.34
2023-05-12T11:19:29.073Z,90447.50
2023-05-12T11:22:17.444Z,90452.06
2023-05-12T11:25:11.731Z,90449.38
2023-05-12T11:27:57.000Z,90452.38
2023-05-12T11:30:54.948Z,90453.63
2023-05-12T11:33:40.577Z,90453.75
2023-05-12T11:36:25.374Z,90445.41
2023-05-12T11:39:22.055Z,90442.88
2023-05-12T11:42:13.458Z,90446.13
2023-05-12T11:44:58.929Z,90445.28
2023-05-12T11:47:43.836Z,90449.72
2023-05-12T11:50:28.810Z,90436.53
2023-05-12T11:53:17.120Z,90443.47
2023-05-12T11:56:02.245Z,90440.53
2023-05-12T11:58:56.277Z,90435.72
2023-05-12T12:01:46.612Z,90440.81
2023-05-12T12:04:36.246Z,90428.63
2023-05-12T12:07:32.047Z,90439.28
2023-05-12T12:10:18.598Z,90442.38
2023-05-12T12:13:03.903Z,90446.94
2023-05-12T12:15:50.643Z,90433.19
2023-05-12T12:18:35.925Z,90438.16
2023-05-12T12:21:22.364Z,90438.75
2023-05-12T12:24:07.556Z,90437.44
2023-05-12T12:26:52.814Z,90437.19
2023-05-12T12:29:37.834Z,90432.50
2023-05-12T12:32:22.817Z,90436.50
2023-05-12T12:35:08.083Z,90427.00
2023-05-12T12:37:52.986Z,90426.13
2023-05-12T12:40:38.258Z,90428.69
2023-05-12T12:43:23.042Z,90433.97
2023-05-12T12:46:08.095Z,90438.66
2023-05-12T12:48:53.464Z,90433.38
2023-05-12T12:51:45.588Z,90436.66
2023-05-12T12:54:31.294Z,90426.56
2023-05-12T12:57:16.483Z,90433.09
2023-05-12T13:00:02.144Z,90428.41
2023-05-12T13:02:47.512Z,90431.66
2023-05-12T13:05:32.779Z,90433.91
2023-05-12T13:08:17.754Z,90431.09
2023-05-12T13:11:03.046Z,90430.38
2023-05-12T13:13:47.883Z,90438.47
2023-05-12T13:16:32.874Z,90431.81
2023-05-12T13:19:18.084Z,90437.06
2023-05-12T13:22:03.299Z,90435.06
2023-05-12T13:24:48.992Z,90432.81
2023-05-12T13:27:35.375Z,90431.53
2023-05-12T13:30:20.592Z,90428.00
2023-05-12T13:33:06.361Z,90433.38
2023-05-12T13:35:51.629Z,90435.53
2023-05-12T13:38:36.518Z,90427.69
2023-05-12T13:41:21.482Z,90431.69
2023-05-12T13:44:06.314Z,90437.53
2023-05-12T13:46:51.200Z,90440.63
2023-05-12T13:49:36.898Z,90440.94
2023-05-12T13:52:21.847Z,90445.63
2023-05-12T13:55:07.224Z,90444.06
2023-05-12T13:57:52.459Z,90442.53
2023-05-12T14:00:37.764Z,90447.22
2023-05-12T14:03:23.132Z,90446.78
2023-05-12T14:06:08.439Z,90450.63
2023-05-12T14:08:53.591Z,90447.91
2023-05-12T14:11:38.932Z,90459.81
2023-05-12T14:14:23.917Z,90453.16
2023-05-12T14:17:08.756Z,90455.56
2023-05-12T14:19:53.855Z,90451.19
2023-05-12T14:22:38.938Z,90461.13
2023-05-12T14:25:25.169Z,90460.13
2023-05-12T14:28:10.566Z,90460.53
2023-05-12T14:30:55.846Z,90463.09
2023-05-12T14:33:41.418Z,90468.63
2023-05-12T14:36:26.513Z,90460.09
2023-05-12T14:39:11.563Z,90465.59
2023-05-12T14:41:56.716Z,90464.06
2023-05-12T14:44:41.666Z,90457.84
2023-05-12T14:47:26.792Z,90459.66
2023-05-12T14:50:12.003Z,90460.81
2023-05-12T14:52:57.439Z,90468.06
2023-05-12T14:55:42.573Z,90458.84
2023-05-12T14:58:27.942Z,90463.69
2023-05-12T15:01:13.077Z,90463.53
2023-05-12T15:03:58.040Z,90458.56
2023-05-12T15:06:42.910Z,90470.63
2023-05-12T15:09:28.092Z,90463.53
2023-05-12T15:12:13.253Z,90461.41
2023-05-12T15:15:01.113Z,90459.25
2023-05-12T15:17:46.290Z,90464.53
2023-05-12T15:20:31.257Z,90460.38
2023-05-12T15:23:16.311Z,90462.94
2023-05-12T15:26:15.475Z,90459.97
2023-05-12T15:29:06.263Z,90467.34
2023-05-12T15:31:51.661Z,90471.59
2023-05-12T15:34:37.195Z,90463.22
2023-05-12T15:37:22.250Z,90469.47
2023-05-12T15:40:08.067Z,90474.44
2023-05-12T15:42:52.929Z,90467.81
2023-05-12T15:45:37.911Z,90470.75
2023-05-12T15:48:23.238Z,90469.47
2023-05-12T15:51:08.517Z,90468.63
2023-05-12T15:53:53.986Z,90464.66
2023-05-12T15:56:39.155Z,90466.94
2023-05-12T15:59:24.290Z,90466.22
2023-05-12T16:02:09.438Z,90473.19
2023-05-12T16:04:54.402Z,90466.22
2023-05-12T16:07:39.778Z,90465.50
2023-05-12T16:10:24.573Z,90466.91
2023-05-12T16:13:09.563Z,90462.13
2023-05-12T16:15:54.602Z,90470.88
2023-05-12T16:18:40.138Z,90462.81
2023-05-12T16:21:25.241Z,90471.59
2023-05-12T16:24:11.088Z,90464.22
2023-05-12T16:26:56.348Z,90464.34
2023-05-12T16:29:45.386Z,90467.34
2023-05-12T16:32:30.682Z,90462.53
2023-05-12T16:35:15.909Z,90466.09
2023-05-12T16:38:02.051Z,90463.94
2023-05-12T16:40:46.981Z,90463.25
2023-05-12T16:43:32.216Z,90464.81
2023-05-12T16:46:17.538Z,90466.81
2023-05-12T16:49:03.032Z,90466.63
2023-05-12T16:51:48.427Z,90472.00
2023-05-12T16:54:33.654Z,90470.03
2023-05-12T16:57:19.080Z,90466.63
2023-05-12T17:00:05.623Z,90471.47
2023-05-12T17:02:50.878Z,90474.28
2023-05-12T17:05:36.960Z,90468.03
2023-05-12T17:08:22.411Z,90474.00
2023-05-12T17:11:08.131Z,90475.28
2023-05-12T17:13:53.729Z,90479.66
2023-05-12T17:16:38.721Z,90479.97
2023-05-12T17:19:24.130Z,90483.22
2023-05-12T17:22:09.589Z,90480.97
2023-05-12T17:24:54.805Z,90486.19
2023-05-12T17:27:40.250Z,90482.50
2023-05-12T17:30:25.114Z,90484.50
2023-05-12T17:33:10.621Z,90492.41
2023-05-12T17:36:10.842Z,90492.84
2023-05-12T17:38:57.058Z,90491.31
2023-05-12T17:41:43.914Z,90496.97
2023-05-12T17:44:29.941Z,90491.00
2023-05-12T17:47:15.304Z,90493.38
2023-05-12T17:50:00.380Z,90491.97
2023-05-12T17:52:45.182Z,90498.22
2023-05-12T17:55:30.034Z,90495.94
2023-05-12T17:58:14.915Z,90495.94
2023-05-12T18:00:59.997Z,90496.50
2023-05-12T18:03:44.819Z,90500.63
2023-05-12T18:06:30.390Z,90499.34
2023-05-12T18:09:17.706Z,90511.69
2023-05-12T18:12:02.702Z,90508.28
2023-05-12T18:14:47.647Z,90510.28
2023-05-12T18:17:33.071Z,90507.00
2023-05-12T18:20:18.922Z,90515.94
2023-05-12T18:23:03.911Z,90515.03
2023-05-12T18:25:48.978Z,90513.22
2023-05-12T18:28:33.906Z,90512.53
2023-05-12T18:31:20.020Z,90524.97
2023-05-12T18:34:05.305Z,90523.00
2023-05-12T18:36:50.168Z,90526.44
2023-05-12T18:39:35.755Z,90530.22
2023-05-12T18:42:21.042Z,90527.53
2023-05-12T18:45:06.599Z,90526.13
2023-05-12T18:47:51.780Z,90528.69
2023-05-12T18:50:36.812Z,90533.34
2023-05-12T18:53:22.305Z,90529.38
2023-05-12T18:56:07.133Z,90537.84
2023-05-12T18:58:52.151Z,90528.38
2023-05-12T19:01:37.216Z,90536.44
2023-05-12T19:04:22.552Z,90543.41
2023-05-12T19:07:09.801Z,90540.84
2023-05-12T19:09:55.805Z,90548.50
2023-05-12T19:12:40.884Z,90548.50
2023-05-12T19:15:26.503Z,90547.78
2023-05-12T19:18:11.505Z,90556.44
2023-05-12T19:20:56.711Z,90553.31
2023-05-12T19:23:41.798Z,90559.69
2023-05-12T19:26:27.052Z,90562.25
2023-05-12T19:29:12.170Z,90566.63
2023-05-12T19:31:57.051Z,90569.44
2023-05-12T19:34:42.194Z,90568.47
2023-05-12T19:37:27.580Z,90575.44
2023-05-12T19:40:13.085Z,90580.28
2023-05-12T19:42:58.218Z,90575.59
2023-05-12T19:45:43.185Z,90577.97
2023-05-12T19:48:28.045Z,90575.53
2023-05-12T19:51:12.961Z,90582.19
2023-05-12T19:53:58.161Z,90578.06
2023-05-12T19:56:43.265Z,90586.72
2023-05-12T19:59:28.022Z,90587.66
2023-05-12T20:02:14.215Z,90590.75
2023-05-12T20:05:00.670Z,90585.78
2023-05-12T20:07:45.943Z,90589.75
2023-05-12T20:10:30.905Z,90590.31
2023-05-12T20:13:16.064Z,90598.09
2023-05-12T20:16:01.001Z,90600.38
2023-05-12T20:18:46.430Z,90598.22
2023-05-12T20:21:31.513Z,90602.19
2023-05-12T20:24:16.406Z,90599.97
2023-05-12T20:27:01.395Z,90589.09
2023-05-12T20:29:46.910Z,90598.44
2023-05-12T20:32:32.179Z,90598.41
2023-05-12T20:35:17.293Z,90596.56
2023-05-12T20:38:02.879Z,90593.25
2023-05-12T20:40:48.037Z,90594.50
2023-05-12T20:43:33.055Z,90597.78
2023-05-12T20:46:18.317Z,90594.06
2023-05-12T20:49:03.673Z,90592.94
2023-05-12T20:51:48.786Z,90596.59
2023-05-12T20:54:33.676Z,90602.22
2023-05-12T20:57:18.709Z,90600.25
2023-05-12T21:00:04.158Z,90601.91
2023-05-12T21:02:52.152Z,90599.94
2023-05-12T21:05:39.079Z,90599.22
2023-05-12T21:08:24.249Z,90607.56
2023-05-12T21:11:14.794Z,90596.25
2023-05-12T21:14:00.217Z,90602.31
2023-05-12T21:16:45.730Z,90605.56
2023-05-12T21:19:30.855Z,90603.44
2023-05-12T21:22:16.094Z,90607.81
2023-05-12T21:25:01.264Z,90597.59
2023-05-12T21:27:47.413Z,90606.06
2023-05-12T21:30:32.546Z,90598.88
2023-05-12T21:33:17.767Z,90599.59
2023-05-12T21:36:03.429Z,90598.41
2023-05-12T21:38:48.409Z,90598.56
2023-05-12T21:41:33.346Z,90597.84
2023-05-12T21:44:18.317Z,90604.34
2023-05-12T21:47:04.360Z,90607.44
2023-05-12T21:49:56.849Z,90612.25
2023-05-12T21:52:41.901Z,90613.22
2023-05-12T21:55:26.781Z,90615.56
2023-05-12T21:58:11.692Z,90617.72
2023-05-12T22:00:56.547Z,90615.19
2023-05-12T22:03:41.751Z,90616.13
2023-05-12T22:06:26.958Z,90604.81
2023-05-12T22:09:12.188Z,90611.09
2023-05-12T22:11:57.155Z,90611.78
2023-05-12T22:14:42.946Z,90613.22
2023-05-12T22:17:28.335Z,90612.66
2023-05-12T22:20:13.546Z,90614.22
2023-05-12T22:22:59.328Z,90613.69
2023-05-12T22:25:44.118Z,90615.63
2023-05-12T22:28:29.047Z,90620.88
2023-05-12T22:31:13.898Z,90626.81
2023-05-12T22:33:58.851Z,90625.78
2023-05-12T22:36:43.838Z,90620.81
2023-05-12T22:39:28.769Z,90623.88
2023-05-12T22:42:13.837Z,90630.69
2023-05-12T22:45:00.765Z,90635.53
2023-05-12T22:47:45.989Z,90631.78
2023-05-12T22:50:30.812Z,90627.69
2023-05-12T22:53:15.864Z,90635.28
2023-05-12T22:56:01.299Z,90642.06
2023-05-12T22:58:46.417Z,90640.81
2023-05-12T23:01:31.605Z,90640.66
2023-05-12T23:04:16.975Z,90640.50
2023-05-12T23:07:02.099Z,90641.78
2023-05-12T23:09:47.148Z,90636.41
2023-05-12T23:12:32.060Z,90638.75
2023-05-12T23:15:17.429Z,90629.41
2023-05-12T23:18:02.278Z,90634.25
2023-05-12T23:20:47.246Z,90631.56
2023-05-12T23:23:33.233Z,90635.19
2023-05-12T23:26:18.235Z,90623.91
2023-05-12T23:29:04.083Z,90624.88
2023-05-12T23:31:49.176Z,90626.59
2023-05-12T23:34:34.124Z,90629.41
2023-05-12T23:37:19.983Z,90625.00
2023-05-12T23:40:05.648Z,90623.59
2023-05-12T23:42:50.696Z,90620.91
2023-05-12T23:45:35.864Z,90626.81
2023-05-12T23:48:21.244Z,90627.38
2023-05-12T23:51:06.202Z,90632.59
2023-05-12T23:53:51.637Z,90625.63
2023-05-12T23:56:36.552Z,90624.91
2023-05-12T23:59:21.821Z,90622.59
